Bayside, NY

1:36 PM EST on February 10, 2016 (GMT -0500)
Harlem Yacht Club | | Change Station
CLOSE
Current Station
Personal Weather Station
Location: City Island, NY
Elevation: 10 ft
Nearby Weather Stations

Elev 10 ft 40.85 °N, 73.79 °W | Updated 8 minutes ago

Mostly Cloudy
Mostly Cloudy
38.5 °F
Feels Like 31 °F
N
12.0
Wind Variable Wind from WNW
Gusts 16.0 mph

Today
High -- | Low -- °F
--% Chance of Precip.
Yesterday
High -- | Low -- °F
Precip. -- in
Pressure 29.60 in
Visibility 10.0 miles
Clouds Few 3400 ft
Overcast 4400 ft
Windchill 31 °F
Dew Point 25 °F
Humidity 58%
Rainfall 0.00 in
Snow Depth Not available.
6:56 AM 5:23 PM
Waxing Crescent, 6% visible
METAR KLGA 101751Z 24011KT 10SM FEW034 OVC044 04/M04 A2960 RMK AO2 SLP022 931000 60000 T00391044 10044 20017 58010 $
Pressure 29.60 in
Visibility 10.0 miles
Clouds Few 3400 ft
Overcast 4400 ft
Windchill 31 °F
Dew Point 25 °F
Humidity 58%
Rainfall 0.00 in
Snow Depth Not available.
6:56 AM 5:23 PM
Waxing Crescent, 6% visible
METAR KLGA 101751Z 24011KT 10SM FEW034 OVC044 04/M04 A2960 RMK AO2 SLP022 931000 60000 T00391044 10044 20017 58010 $

10-Day Weather Forecast

Almanac

Astronomy

Feb. 10, 2016 Rise Set
Actual Time
Civil Twilight
Nautical Twilight
Astronomical Twilight
Moon
Length of Visible Light
Length of Day
Tomorrow will be .
, % of the Moon is Illuminated

Today's Extremes

State Highs State Lows

Community

WunderPhotos

Upload Photos

1,891,914 photos uploaded!

WunderBlog® & News

Nearby

Air Quality

  Air Quality AQ Index Pollutant
Not available.

Snow Depth

Station Depth Elevation

Earthquake Activity

City Distance Mag. Time & Date
Minimum magnitude displayed is 2.5.

Coastal Water Temperatures

Place Temperature

Stations

Nearby Weather Stations

Station Location Temp. Windchill Dew Point Humidity Wind Precip. Elev Updated Type
                   

Watches & Warnings

There are currently no watches in effect.